< < Back
Terminal Aerodrome Forecast


Current Version              Previous Versions:   1  2  3  4  5  6  7  8  9  

Terminal Aerodrome Forecast

003
FTUS42 KJAX 202300 RRA
TAFJAX
TAF
KJAX 202342Z 2100/2124 29005KT P6SM FEW050 SCT150 SCT250
     FM210200 26003KT P6SM FEW250
     FM211500 28006KT P6SM FEW040
     FM212100 11009KT P6SM SCT050 SCT250=

Latest METAR

664
SAUS80 KWBC 210800 CCA
MTRJAX
METAR KJAX 210756Z 00000KT 8SM CLR 24/24 A3005 RMK AO2 SLP175
T02440239


USA.gov is the U.S. government's official web portal to all federal, state and local government web resources and services.